Impacts METAR Board INFO
IDs:

KDEN - Denver Intl, CO, US

Updated at: 1045 UTC 16 Dec 2017
Potential Impact None Slight Moderate High
Time15/22Z 15/23Z 16/00Z 16/01Z 16/02Z 16/03Z 16/04Z 16/05Z 16/06Z 16/07Z 16/08Z 16/09Z 16/10Z
VIS10 10 10 10 10 10 10 10 10 10 10 10 10
CIG-- -- -- -- -- -- -- 220 220 220 220 220 180
CoverSCTSCTSCTSCTSCTSCTSCTBKNBKNBKNOVCBKNOVC
FltCatVFRVFRVFRVFRVFRVFRVFRVFRVFRVFRVFRVFRVFR
WX--------------------------
WDir270270190260260210220210210210210200180
WSpd8 4 6 6 3 9 8 12 7 12 8 8 7
WGst-- -- -- -- -- -- -- -- -- -- -- -- --
Raw hourly METARs
KDEN 152153Z 27008KT 10SM FEW130 SCT220 17/M16 A2990 RMK AO2 SLP101 T01671161
KDEN 152253Z 27004KT 10SM SCT180 15/M15 A2988 RMK AO2 SLP097 T01501150
KDEN 152353Z 19006KT 10SM SCT140 SCT200 12/M16 A2987 RMK AO2 SLP097 T01221156 10172 20122 58008
KDEN 160053Z 26006KT 10SM SCT140 SCT200 10/M15 A2986 RMK AO2 SLP100 T01001150
KDEN 160153Z 26003KT 10SM SCT140 SCT200 08/M15 A2986 RMK AO2 SLP101 T00781150
KDEN 160253Z 21009KT 10SM FEW140 SCT220 05/M11 A2985 RMK AO2 SLP101 T00501111 58005 $
KDEN 160353Z 22008KT 10SM FEW140 SCT220 06/M11 A2984 RMK AO2 SLP088 T00561106 $
KDEN 160453Z 21012KT 10SM FEW140 BKN220 07/M12 A2983 RMK AO2 SLP073 T00671117 $
KDEN 160553Z 21007KT 10SM SCT140 BKN220 06/M11 A2981 RMK AO2 SLP059 T00561111 10128 20017 58013 $
KDEN 160653Z 21012KT 10SM SCT140 BKN220 08/M12 A2978 RMK AO2 SLP041 T00781122 401721056 $
KDEN 160753Z 21008KT 10SM SCT140 OVC220 06/M11 A2977 RMK AO2 SLP039 T00611111 $
KDEN 160853Z 20008KT 10SM FEW120 SCT140 BKN220 04/M11 A2977 RMK AO2 SLP041 T00441106 56011 $
KDEN 160953Z 18007KT 10SM FEW140 BKN180 OVC220 03/M09 A2976 RMK AO2 SLP042 T00331094 $